createdAt,value
2023-02-02T00:00:22.103Z,5.13
2023-02-02T00:05:23.907Z,5.70
2023-02-02T00:10:25.519Z,4.72
2023-02-02T00:15:26.997Z,4.85
2023-02-02T00:20:29.282Z,6.65
2023-02-02T00:25:30.748Z,4.57
2023-02-02T00:30:32.235Z,5.75
2023-02-02T00:35:33.751Z,4.90
2023-02-02T00:40:35.225Z,3.85
2023-02-02T00:45:37.553Z,4.43
2023-02-02T00:50:39.144Z,4.03
2023-02-02T00:55:40.631Z,5.65
2023-02-02T01:00:42.152Z,3.78
2023-02-02T01:05:43.660Z,4.97
2023-02-02T01:10:45.158Z,5.07
2023-02-02T01:15:46.625Z,5.13
2023-02-02T01:20:48.101Z,4.75
2023-02-02T01:25:58.996Z,2.97
2023-02-02T01:31:05.816Z,3.72
2023-02-02T01:36:10.022Z,3.40
2023-02-02T01:41:13.520Z,3.53
2023-02-02T01:46:16.783Z,3.00
2023-02-02T01:56:42.194Z,3.88
2023-02-02T02:01:44.496Z,3.50
2023-02-02T02:06:46.011Z,3.67
2023-02-02T02:11:47.617Z,3.17
2023-02-02T02:17:02.572Z,3.50
2023-02-02T02:22:34.797Z,3.85
2023-02-02T02:28:33.587Z,2.80
2023-02-02T02:34:18.032Z,3.80
2023-02-02T02:39:27.515Z,2.38
2023-02-02T02:44:28.983Z,3.95
2023-02-02T02:49:30.461Z,3.53
2023-02-02T02:54:34.087Z,3.45
2023-02-02T03:00:06.519Z,5.78
2023-02-02T03:05:16.154Z,4.40
2023-02-02T03:10:19.003Z,3.20
2023-02-02T03:15:20.464Z,4.75
2023-02-02T03:20:22.067Z,2.90
2023-02-02T03:25:23.954Z,4.80
2023-02-02T03:30:25.666Z,3.22
2023-02-02T03:35:27.198Z,3.30
2023-02-02T03:40:28.974Z,2.97
2023-02-02T03:45:30.658Z,4.18
2023-02-02T03:50:32.480Z,3.70
2023-02-02T03:55:35.030Z,3.10
2023-02-02T04:00:36.562Z,4.68
2023-02-02T04:05:38.050Z,3.70
2023-02-02T04:10:42.360Z,3.40
2023-02-02T04:15:43.843Z,3.70
2023-02-02T04:20:45.331Z,4.28
2023-02-02T04:25:50.567Z,3.20
2023-02-02T04:30:52.837Z,5.28
2023-02-02T04:35:54.600Z,2.95
2023-02-02T04:40:56.067Z,4.20
2023-02-02T04:45:57.662Z,4.43
2023-02-02T04:51:00.530Z,3.17
2023-02-02T04:56:06.715Z,3.55
2023-02-02T05:01:15.629Z,3.40
2023-02-02T05:06:17.556Z,2.72
2023-02-02T05:11:20.832Z,3.38
2023-02-02T05:21:23.891Z,2.80
2023-02-02T05:26:26.138Z,4.15
2023-02-02T05:31:27.716Z,2.63
2023-02-02T05:36:29.259Z,3.13
2023-02-02T05:41:30.739Z,2.70
2023-02-02T05:46:32.220Z,3.20
2023-02-02T05:51:36.035Z,1.92
2023-02-02T05:56:37.502Z,2.67
2023-02-02T06:01:38.962Z,2.75
2023-02-02T06:06:40.646Z,2.55
2023-02-02T06:11:43.810Z,2.03
2023-02-02T06:16:45.286Z,1.60
2023-02-02T06:21:46.762Z,2.45
2023-02-02T06:26:48.297Z,2.72
2023-02-02T06:31:49.893Z,2.80
2023-02-02T06:36:51.409Z,2.78
2023-02-02T06:41:52.945Z,3.45
2023-02-02T06:46:54.431Z,2.80
2023-02-02T06:51:55.895Z,2.92
2023-02-02T06:56:57.397Z,1.75
2023-02-02T07:01:58.896Z,2.55
2023-02-02T07:07:00.401Z,2.00
2023-02-02T07:12:01.886Z,2.22
2023-02-02T07:17:03.395Z,1.35
2023-02-02T07:22:04.866Z,1.88
2023-02-02T07:27:06.334Z,1.77
2023-02-02T07:32:07.825Z,1.75
2023-02-02T07:37:10.379Z,1.98
2023-02-02T07:42:12.549Z,1.45
2023-02-02T07:47:14.009Z,2.95
2023-02-02T07:52:15.938Z,1.88
2023-02-02T07:57:17.647Z,3.75
2023-02-02T08:02:19.130Z,3.30
2023-02-02T08:07:24.457Z,2.15
2023-02-02T08:12:26.537Z,2.58
2023-02-02T08:17:28.025Z,2.58
2023-02-02T08:22:29.485Z,2.28
2023-02-02T08:27:30.994Z,1.95
2023-02-02T08:32:32.486Z,1.95
2023-02-02T08:37:33.961Z,2.90
2023-02-02T08:42:35.421Z,2.30
2023-02-02T08:47:36.888Z,2.92
2023-02-02T08:52:38.635Z,2.22
2023-02-02T08:57:40.111Z,1.75
2023-02-02T09:02:41.584Z,1.83
2023-02-02T09:07:43.058Z,2.80
2023-02-02T09:12:44.551Z,2.15
2023-02-02T09:17:46.040Z,2.55
2023-02-02T09:22:47.926Z,1.63
2023-02-02T09:27:49.398Z,1.70
2023-02-02T09:32:51.081Z,1.38
2023-02-02T09:37:52.576Z,1.60
2023-02-02T09:43:06.937Z,1.48
2023-02-02T09:48:28.577Z,1.02
2023-02-02T09:53:36.616Z,1.23
2023-02-02T09:58:44.867Z,1.88
2023-02-02T10:03:53.952Z,1.90
2023-02-02T10:08:57.356Z,1.48
2023-02-02T10:14:06.211Z,2.45
2023-02-02T10:19:11.900Z,1.55
2023-02-02T10:24:20.938Z,1.33
2023-02-02T10:29:48.069Z,1.40
2023-02-02T10:35:34.565Z,1.42
2023-02-02T10:41:16.540Z,1.58
2023-02-02T10:46:38.193Z,1.30
2023-02-02T10:51:41.123Z,1.10
2023-02-02T10:56:45.234Z,1.30
2023-02-02T11:01:48.428Z,1.88
2023-02-02T11:06:49.947Z,1.95
2023-02-02T11:11:53.528Z,1.58
2023-02-02T11:17:05.647Z,1.65
2023-02-02T11:22:23.177Z,2.03
2023-02-02T11:27:27.655Z,1.20
2023-02-02T11:32:30.096Z,1.30
2023-02-02T11:37:32.490Z,1.50
2023-02-02T11:42:33.989Z,1.30
2023-02-02T11:47:35.703Z,1.65
2023-02-02T11:52:37.173Z,1.23
2023-02-02T11:57:38.638Z,1.50
2023-02-02T12:02:45.825Z,1.85
2023-02-02T12:07:47.783Z,1.30
2023-02-02T12:13:14.878Z,1.63
2023-02-02T12:18:40.330Z,1.50
2023-02-02T12:24:06.544Z,1.52
2023-02-02T12:29:14.550Z,1.50
2023-02-02T12:35:05.476Z,1.17
2023-02-02T12:40:27.289Z,1.33
2023-02-02T12:45:59.315Z,1.27
2023-02-02T12:51:22.505Z,1.23
2023-02-02T12:56:38.350Z,1.77
2023-02-02T13:07:05.516Z,0.85
2023-02-02T13:12:10.408Z,1.42
2023-02-02T13:17:42.115Z,0.85
2023-02-02T13:22:44.055Z,1.30
2023-02-02T13:27:45.734Z,1.75
2023-02-02T13:32:47.219Z,1.00
2023-02-02T13:37:59.374Z,1.10
2023-02-02T13:43:25.973Z,1.50
2023-02-02T13:48:36.364Z,1.17
2023-02-02T13:54:05.500Z,1.20
2023-02-02T13:59:31.429Z,1.35
2023-02-02T14:04:32.919Z,1.70
2023-02-02T14:09:35.889Z,1.30
2023-02-02T14:19:41.960Z,1.90
2023-02-02T14:24:50.380Z,3.00
2023-02-02T14:29:54.425Z,2.95
2023-02-02T14:34:59.461Z,2.15
2023-02-02T14:40:06.667Z,2.10
2023-02-02T14:45:10.774Z,2.10
2023-02-02T14:50:23.955Z,2.35
2023-02-02T14:55:25.615Z,2.53
2023-02-02T15:00:32.262Z,2.50
2023-02-02T15:05:38.787Z,2.33
2023-02-02T15:10:51.872Z,1.50
2023-02-02T15:16:01.504Z,2.72
2023-02-02T15:21:03.033Z,2.30
2023-02-02T15:26:12.120Z,2.30
2023-02-02T15:31:44.785Z,2.58
2023-02-02T15:36:46.993Z,2.00
2023-02-02T15:41:48.739Z,2.03
2023-02-02T15:46:50.263Z,2.42
2023-02-02T15:51:52.689Z,1.50
2023-02-02T15:56:55.089Z,2.70
2023-02-02T16:02:08.408Z,1.50
2023-02-02T16:07:17.027Z,1.80
2023-02-02T16:12:20.446Z,3.05
2023-02-02T16:17:29.687Z,2.20
2023-02-02T16:22:31.158Z,1.67
2023-02-02T16:27:32.712Z,2.05
2023-02-02T16:32:38.886Z,1.42
2023-02-02T16:37:40.426Z,1.35
2023-02-02T16:42:41.920Z,1.17
2023-02-02T16:47:43.394Z,2.55
2023-02-02T16:53:01.480Z,1.50
2023-02-02T16:58:04.764Z,1.38
2023-02-02T17:03:08.123Z,1.15
2023-02-02T17:08:09.572Z,1.33
2023-02-02T17:13:33.419Z,1.20
2023-02-02T17:18:34.947Z,1.70
2023-02-02T17:23:36.445Z,1.67
2023-02-02T17:28:39.225Z,1.70
2023-02-02T17:33:40.817Z,1.67
2023-02-02T17:38:42.350Z,2.00
2023-02-02T17:43:43.923Z,1.88
2023-02-02T17:48:45.442Z,2.33
2023-02-02T17:53:47.009Z,2.03
2023-02-02T17:58:48.501Z,2.08
2023-02-02T18:03:50.737Z,2.17
2023-02-02T18:08:52.211Z,2.40
2023-02-02T18:13:53.782Z,1.95
2023-02-02T18:18:56.554Z,2.22
2023-02-02T18:23:58.050Z,1.75
2023-02-02T18:28:59.558Z,2.30
2023-02-02T18:34:01.050Z,2.92
2023-02-02T18:39:02.520Z,2.95
2023-02-02T18:44:04.011Z,2.15
2023-02-02T18:49:05.476Z,1.90
2023-02-02T18:54:06.949Z,1.95
2023-02-02T18:59:08.449Z,2.22
2023-02-02T19:04:11.095Z,2.60
2023-02-02T19:09:17.158Z,3.58
2023-02-02T19:14:19.469Z,2.63
2023-02-02T19:19:30.129Z,2.63
2023-02-02T19:24:40.393Z,2.90
2023-02-02T19:29:41.872Z,2.47
2023-02-02T19:34:43.371Z,2.45
2023-02-02T19:39:47.031Z,3.65
2023-02-02T19:44:48.756Z,2.95
2023-02-02T19:49:50.295Z,4.13
2023-02-02T19:54:52.467Z,3.67
2023-02-02T19:59:53.962Z,3.40
2023-02-02T20:05:00.152Z,3.10
2023-02-02T20:10:35.592Z,3.83
2023-02-02T20:20:39.573Z,3.30
2023-02-02T20:25:41.501Z,3.95
2023-02-02T20:30:42.963Z,4.22
2023-02-02T20:35:44.471Z,4.13
2023-02-02T20:40:45.949Z,4.10
2023-02-02T20:45:47.790Z,4.50
2023-02-02T20:50:49.524Z,4.32
2023-02-02T20:55:56.662Z,4.50
2023-02-02T21:00:58.150Z,4.63
2023-02-02T21:06:00.003Z,4.13
2023-02-02T21:11:01.494Z,5.20
2023-02-02T21:16:03.018Z,5.25
2023-02-02T21:21:04.664Z,5.55
2023-02-02T21:26:06.364Z,5.38
2023-02-02T21:31:08.684Z,5.00
2023-02-02T21:36:28.950Z,4.35
2023-02-02T21:41:30.526Z,4.35
2023-02-02T21:46:36.345Z,3.72
2023-02-02T21:51:37.905Z,4.20
2023-02-02T21:56:39.595Z,3.42
2023-02-02T22:01:41.127Z,4.78
2023-02-02T22:06:45.097Z,4.40
2023-02-02T22:11:50.987Z,3.10
2023-02-02T22:16:55.824Z,3.80
2023-02-02T22:22:09.270Z,2.92
2023-02-02T22:27:22.052Z,3.45
2023-02-02T22:32:23.528Z,4.53
2023-02-02T22:37:25.020Z,4.20
2023-02-02T22:42:26.490Z,4.10
2023-02-02T22:47:28.008Z,3.30
2023-02-02T22:52:29.490Z,4.00
2023-02-02T22:57:30.961Z,4.35
2023-02-02T23:02:32.503Z,3.88
2023-02-02T23:07:34.023Z,3.92
2023-02-02T23:12:35.496Z,4.95
2023-02-02T23:17:36.977Z,3.10
2023-02-02T23:22:38.689Z,3.58
2023-02-02T23:27:40.209Z,3.28
2023-02-02T23:32:41.705Z,3.58
2023-02-02T23:37:43.162Z,3.50
2023-02-02T23:42:44.633Z,3.30
2023-02-02T23:47:46.154Z,3.35
2023-02-02T23:52:47.647Z,5.03
2023-02-02T23:57:49.172Z,4.63
